Terminal Aerodrome Forecast
Issued by NWS

Home | Current Version | Previous Version | Text Only | Print | Product List | Glossary On
Versions: 1 2 3 4 5 6 7 8 9 10 11 12 13 14 15 16 17
000
FTUS41 KPBZ 301100
TAFAGC
TAF
KAGC 301122Z 3012/3112 26007KT P6SM BKN060
     FM301500 29006KT P6SM BKN035
     FM310600 23005KT P6SM OVC040=

USA.gov is the U.S. government's official web portal to all federal, state and local government web resources and services.